KLRO/LRO METAR and TAF weather

Enter ICAO airport designator
Station Type Date Time Source
KLRO METAR 2019/10/14 05:55 UTC NOAA

KLRO 140555Z AUTO 22004KT 10SM BKN055 OVC110 24/21 A3004 RMK AO2


Station Type Date Time Source
KLRO Decoded METAR 2019/10/14 05:55 UTC NOAA

Station name not available
Oct 14, 2019 - 01:55 AM EDT / 2019.10.14 0555 UTC
Wind: from the SW (220 degrees) at 5 MPH (4 KT):0
Visibility: 10 mile(s):0
Sky conditions: overcast
Temperature: 75 F (24 C)
Dew Point: 69 F (21 C)
Relative Humidity: 83%
Pressure (altimeter): 30.04 in. Hg (1017 hPa)
ob: KLRO 140555Z AUTO 22004KT 10SM BKN055 OVC110 24/21 A3004 RMK AO2
cycle: 6

Station Type Date Time Source
KLRO TAF UTC NOAA

Error!

Example: see airport list